Kaba He, China
Current Conditions -  °F | °C
As of 7:00 PM on Saturday 22 Nov 2014 (Local Time) from UASK Reporting Station
Overcast Overcast  
Wind Chill: 17°   Ceiling: 5200
Heat Index: 23°   Visibility: 6mi
Dew Point: 18°   Wind: 4mph
Humidity: 80%   Direction: 80°E
Pressure: 30.36"   Gusts: NA
Location:  48.05°N, 86.35°E
Report Text: UASK 221100Z 08002MPS 9999 OVC052 M05/M08 Q1028 R30/820240NOSIG RMK QFE745/0994
Loading
Personal Weather Stations






























Interactive Weather Map New forecast layout! Learn more

10-Day Weather Forecast

Advertisements
Track Severe Weather on mobile